Clearwater, Minnesota
Current Conditions -  °F | °C
As of 1:53 AM on Tuesday 27 Jan 2015 (Local Time) from KSTC Reporting Station
Overcast Overcast  
Wind Chill: 26°   Ceiling: 1700
Heat Index: 32°   Visibility: 10mi
Dew Point: 26°   Wind: 7mph
Humidity: 79%   Direction: 330°NNW
Pressure: 30.03"   Gusts: NA
Location:  45.42°N, 94.05°W
Report Text: KSTC 270753Z AUTO 33006KT 10SM OVC017 00/M03 A3003 RMK AO2 SLP188 T00001033
Loading
Personal Weather Stations






























Interactive Weather Map New forecast layout! Learn more

10-Day Weather Forecast

Advertisements
Track Severe Weather on mobile